Scandinavia, Wisconsin
Current Conditions -  °F | °C
As of 3:55 AM on Sunday 23 Nov 2014 (Local Time) from KPCZ Reporting Station
Haze Haze  
Wind Chill: 46°   Ceiling: 600
Heat Index: 49°   Visibility: 3mi
Dew Point: 48°   Wind: 7mph
Humidity: 95%   Direction: 160°SSE
Pressure: 29.64"   Gusts: NA
Location:  44.46°N, 89.15°W
Report Text: KPCZ 230955Z AUTO 16006KT 3SM BR OVC006 10/09 A2964 RMK AO2 T00950087
Loading
Personal Weather Stations






























Interactive Weather Map New forecast layout! Learn more

10-Day Weather Forecast

Advertisements
Track Severe Weather on mobile